createdAt,value
2017-11-14T00:02:38.923Z,94.60
2017-11-14T00:05:44.449Z,94.20
2017-11-14T00:08:49.830Z,94.30
2017-11-14T00:11:55.405Z,95.20
2017-11-14T00:15:00.985Z,94.90
2017-11-14T00:18:06.986Z,94.70
2017-11-14T00:21:12.107Z,94.70
2017-11-14T00:24:17.909Z,94.80
2017-11-14T00:27:22.933Z,94.80
2017-11-14T00:30:28.613Z,94.50
2017-11-14T00:33:35.342Z,94.30
2017-11-14T00:36:40.874Z,94.90
2017-11-14T00:39:47.163Z,94.10
2017-11-14T00:42:52.175Z,94.10
2017-11-14T00:45:57.881Z,94.50
2017-11-14T00:49:02.982Z,94.50
2017-11-14T00:52:08.891Z,94.00
2017-11-14T00:55:13.948Z,94.10
2017-11-14T00:58:18.812Z,93.80
2017-11-14T01:01:23.639Z,94.00
2017-11-14T01:04:28.565Z,94.20
2017-11-14T01:07:34.515Z,94.60
2017-11-14T01:10:39.512Z,94.50
2017-11-14T01:13:45.053Z,94.50
2017-11-14T01:16:50.344Z,94.40
2017-11-14T01:19:55.757Z,94.30
2017-11-14T01:23:01.477Z,94.20
2017-11-14T01:26:06.553Z,94.40
2017-11-14T01:29:11.998Z,94.30
2017-11-14T01:32:16.960Z,94.70
2017-11-14T01:35:21.897Z,94.80
2017-11-14T01:38:26.862Z,94.90
2017-11-14T01:41:32.528Z,94.80
2017-11-14T01:44:37.817Z,94.70
2017-11-14T01:47:43.104Z,94.80
2017-11-14T01:50:48.789Z,94.70
2017-11-14T01:53:54.513Z,94.60
2017-11-14T01:57:00.340Z,94.50
2017-11-14T02:00:05.547Z,94.50
2017-11-14T02:03:10.745Z,94.40
2017-11-14T02:06:16.070Z,94.50
2017-11-14T02:09:22.527Z,94.50
2017-11-14T02:12:28.453Z,94.40
2017-11-14T02:15:33.422Z,94.30
2017-11-14T02:18:39.170Z,94.10
2017-11-14T02:21:45.337Z,94.00
2017-11-14T02:24:51.029Z,94.90
2017-11-14T02:27:59.648Z,94.40
2017-11-14T02:31:04.634Z,94.40
2017-11-14T02:34:10.161Z,94.10
2017-11-14T02:37:15.012Z,94.40
2017-11-14T02:40:20.844Z,94.30
2017-11-14T02:43:25.912Z,94.30
2017-11-14T02:46:31.380Z,94.20
2017-11-14T02:49:36.978Z,94.30
2017-11-14T02:52:42.878Z,94.30
2017-11-14T02:55:48.830Z,93.90
2017-11-14T02:58:54.549Z,93.90
2017-11-14T03:01:59.772Z,94.10
2017-11-14T03:05:05.935Z,94.00
2017-11-14T03:08:11.652Z,93.90
2017-11-14T03:11:17.424Z,94.20
2017-11-14T03:14:22.582Z,94.10
2017-11-14T03:17:29.438Z,93.40
2017-11-14T03:20:34.634Z,93.90
2017-11-14T03:23:39.621Z,94.00
2017-11-14T03:26:45.252Z,93.80
2017-11-14T03:29:50.244Z,93.80
2017-11-14T03:32:55.705Z,93.90
2017-11-14T03:36:01.054Z,93.80
2017-11-14T03:39:06.694Z,93.60
2017-11-14T03:42:11.754Z,93.60
2017-11-14T03:45:17.431Z,93.70
2017-11-14T03:48:22.788Z,93.90
2017-11-14T03:51:28.668Z,93.80
2017-11-14T03:54:33.837Z,93.60
2017-11-14T03:57:39.311Z,93.70
2017-11-14T04:00:44.824Z,93.60
2017-11-14T04:03:50.413Z,93.50
2017-11-14T04:06:55.383Z,93.20
2017-11-14T04:10:01.029Z,93.60
2017-11-14T04:13:06.603Z,93.80
2017-11-14T04:16:11.830Z,93.70
2017-11-14T04:19:17.336Z,93.90
2017-11-14T04:22:23.244Z,93.80
2017-11-14T04:25:28.641Z,93.80
2017-11-14T04:28:34.300Z,94.00
2017-11-14T04:31:39.413Z,93.90
2017-11-14T04:34:44.349Z,94.00
2017-11-14T04:37:49.516Z,93.90
2017-11-14T04:40:55.921Z,93.40
2017-11-14T04:44:00.893Z,93.40
2017-11-14T04:47:06.168Z,93.00
2017-11-14T04:50:11.828Z,93.40
2017-11-14T04:53:17.621Z,93.40
2017-11-14T04:56:22.739Z,93.80
2017-11-14T04:59:28.502Z,93.60
2017-11-14T05:02:34.049Z,94.00
2017-11-14T05:05:39.788Z,94.00
2017-11-14T05:08:47.881Z,93.80
2017-11-14T05:11:56.716Z,93.70
2017-11-14T05:15:04.026Z,94.10
2017-11-14T05:18:09.355Z,93.80
2017-11-14T05:21:20.218Z,94.40
2017-11-14T05:24:26.700Z,94.30
2017-11-14T05:27:32.110Z,94.30
2017-11-14T05:30:37.941Z,94.20
2017-11-14T05:33:47.082Z,94.20
2017-11-14T05:36:58.158Z,94.20
2017-11-14T05:40:03.901Z,94.60
2017-11-14T05:43:09.990Z,94.20
2017-11-14T05:46:16.809Z,94.20
2017-11-14T05:49:23.025Z,94.20
2017-11-14T05:52:28.737Z,94.10
2017-11-14T05:55:34.852Z,94.10
2017-11-14T05:58:40.228Z,94.20
2017-11-14T06:01:46.001Z,93.90
2017-11-14T06:04:52.333Z,93.80
2017-11-14T06:07:57.378Z,93.90
2017-11-14T06:11:02.947Z,93.90
2017-11-14T06:14:08.441Z,93.90
2017-11-14T06:17:13.751Z,93.90
2017-11-14T06:20:18.813Z,93.80
2017-11-14T06:23:24.153Z,93.80
2017-11-14T06:26:29.388Z,93.90
2017-11-14T06:29:35.046Z,93.70
2017-11-14T06:32:40.001Z,93.80
2017-11-14T06:35:44.649Z,93.90
2017-11-14T06:38:50.777Z,93.80
2017-11-14T06:41:56.321Z,93.80
2017-11-14T06:45:01.466Z,93.80
2017-11-14T06:48:07.828Z,93.90
2017-11-14T06:51:12.921Z,93.90
2017-11-14T06:54:18.542Z,94.00
2017-11-14T06:57:24.152Z,94.00
2017-11-14T07:00:29.813Z,93.90
2017-11-14T07:03:35.603Z,94.00
2017-11-14T07:06:41.342Z,94.00
2017-11-14T07:09:47.569Z,93.80
2017-11-14T07:12:52.497Z,93.80
2017-11-14T07:15:57.290Z,93.80
2017-11-14T07:19:02.630Z,93.90
2017-11-14T07:22:07.541Z,93.90
2017-11-14T07:25:13.160Z,93.70
2017-11-14T07:28:18.620Z,93.80
2017-11-14T07:31:24.481Z,93.60
2017-11-14T07:34:30.776Z,93.80
2017-11-14T07:37:35.742Z,93.60
2017-11-14T07:40:41.450Z,93.50
2017-11-14T07:43:46.798Z,93.30
2017-11-14T07:46:52.444Z,93.40
2017-11-14T07:49:58.179Z,93.70
2017-11-14T07:53:02.995Z,92.90
2017-11-14T07:56:08.390Z,92.70
2017-11-14T07:59:13.864Z,92.50
2017-11-14T08:02:19.337Z,92.40
2017-11-14T08:05:24.893Z,92.60
2017-11-14T08:08:30.053Z,92.20
2017-11-14T08:11:36.613Z,92.50
2017-11-14T08:14:42.220Z,92.50
2017-11-14T08:17:47.188Z,91.90
2017-11-14T08:20:52.668Z,91.40
2017-11-14T08:23:57.629Z,91.70
2017-11-14T08:27:02.758Z,91.70
2017-11-14T08:30:08.283Z,90.70
2017-11-14T08:33:13.305Z,90.80
2017-11-14T08:36:19.497Z,91.10
2017-11-14T08:39:24.746Z,91.10
2017-11-14T08:42:29.432Z,91.50
2017-11-14T08:45:34.953Z,91.60
2017-11-14T08:48:41.204Z,91.00
2017-11-14T08:51:46.613Z,91.00
2017-11-14T08:54:51.652Z,91.30
2017-11-14T08:57:57.349Z,91.20
2017-11-14T09:01:03.841Z,92.30
2017-11-14T09:04:09.487Z,91.00
2017-11-14T09:07:15.138Z,91.00
2017-11-14T09:10:21.605Z,90.80
2017-11-14T09:13:27.199Z,90.80
2017-11-14T09:16:33.018Z,90.30
2017-11-14T09:19:37.973Z,88.50
2017-11-14T09:22:44.297Z,89.60
2017-11-14T09:25:50.160Z,88.60
2017-11-14T09:28:55.926Z,87.90
2017-11-14T09:32:01.793Z,87.90
2017-11-14T09:35:07.885Z,86.20
2017-11-14T09:38:14.374Z,87.10
2017-11-14T09:41:20.093Z,87.10
2017-11-14T09:44:25.211Z,88.30
2017-11-14T09:47:30.939Z,88.20
2017-11-14T09:50:36.014Z,87.70
2017-11-14T09:53:41.600Z,85.80
2017-11-14T09:56:46.905Z,86.00
2017-11-14T09:59:51.709Z,85.20
2017-11-14T10:02:56.598Z,84.10
2017-11-14T10:06:01.834Z,84.80
2017-11-14T10:09:07.077Z,85.60
2017-11-14T10:12:12.896Z,85.20
2017-11-14T10:15:17.894Z,82.50
2017-11-14T10:18:22.768Z,83.20
2017-11-14T10:21:28.581Z,84.60
2017-11-14T10:24:33.982Z,85.10
2017-11-14T10:27:39.600Z,86.60
2017-11-14T10:30:44.522Z,90.00
2017-11-14T10:33:49.874Z,89.70
2017-11-14T10:36:54.909Z,88.50
2017-11-14T10:39:59.862Z,88.40
2017-11-14T10:43:05.683Z,87.90
2017-11-14T10:46:10.521Z,87.90
2017-11-14T10:49:16.136Z,86.70
2017-11-14T10:52:23.545Z,87.30
2017-11-14T10:55:30.912Z,89.70
2017-11-14T10:58:37.666Z,88.80
2017-11-14T11:01:42.841Z,90.20
2017-11-14T11:04:47.785Z,91.00
2017-11-14T11:07:53.869Z,90.50
2017-11-14T11:10:58.850Z,90.00
2017-11-14T11:14:05.574Z,88.00
2017-11-14T11:17:12.780Z,89.20
2017-11-14T11:20:17.594Z,89.20
2017-11-14T11:23:22.437Z,87.00
2017-11-14T11:26:28.090Z,86.60
2017-11-14T11:29:33.093Z,86.40
2017-11-14T11:32:38.358Z,84.70
2017-11-14T11:35:45.037Z,80.80
2017-11-14T11:38:50.407Z,81.70
2017-11-14T11:41:56.076Z,81.70
2017-11-14T11:45:01.481Z,79.60
2017-11-14T11:48:06.580Z,81.80
2017-11-14T11:51:12.189Z,80.90
2017-11-14T11:54:18.048Z,78.50
2017-11-14T11:57:25.529Z,79.40
2017-11-14T12:00:38.787Z,79.30
2017-11-14T12:03:46.711Z,78.80
2017-11-14T12:06:52.468Z,78.50
2017-11-14T12:09:59.073Z,78.50
2017-11-14T12:13:04.741Z,78.90
2017-11-14T12:16:10.168Z,79.00
2017-11-14T12:19:16.740Z,77.60
2017-11-14T12:22:23.057Z,77.00
2017-11-14T12:25:28.662Z,77.90
2017-11-14T12:28:33.389Z,77.10
2017-11-14T12:31:38.454Z,74.00
2017-11-14T12:34:43.290Z,75.30
2017-11-14T12:37:48.515Z,77.70
2017-11-14T12:40:53.795Z,78.80
2017-11-14T12:43:59.329Z,75.50
2017-11-14T12:47:04.253Z,75.50
2017-11-14T12:50:10.995Z,75.90
2017-11-14T12:53:16.725Z,75.90
2017-11-14T12:56:21.749Z,76.60
2017-11-14T12:59:28.953Z,77.20
2017-11-14T13:02:35.628Z,77.10
2017-11-14T13:05:40.996Z,78.20
2017-11-14T13:08:46.365Z,77.10
2017-11-14T13:11:53.305Z,74.00
2017-11-14T13:14:57.989Z,74.60
2017-11-14T13:18:05.188Z,75.90
2017-11-14T13:21:10.881Z,71.70
2017-11-14T13:24:17.992Z,72.70
2017-11-14T13:27:25.535Z,72.60
2017-11-14T13:30:30.875Z,73.00
2017-11-14T13:33:35.912Z,73.90
2017-11-14T13:36:41.708Z,73.20
2017-11-14T13:39:46.605Z,73.90
2017-11-14T13:42:51.570Z,76.60
2017-11-14T13:45:57.113Z,77.20
2017-11-14T13:49:03.675Z,75.30
2017-11-14T13:52:09.829Z,76.20
2017-11-14T13:55:15.409Z,75.30
2017-11-14T13:58:22.971Z,75.40
2017-11-14T14:01:30.097Z,76.30
2017-11-14T14:04:35.092Z,76.60
2017-11-14T14:07:40.881Z,77.00
2017-11-14T14:10:46.202Z,75.60
2017-11-14T14:13:52.268Z,75.90
2017-11-14T14:16:57.846Z,76.80
2017-11-14T14:20:03.400Z,76.60
2017-11-14T14:23:08.626Z,76.50
2017-11-14T14:26:14.428Z,76.50
2017-11-14T14:29:19.889Z,76.50
2017-11-14T14:32:25.374Z,75.40
2017-11-14T14:35:30.709Z,76.80
2017-11-14T14:38:36.581Z,76.90
2017-11-14T14:41:41.372Z,75.70
2017-11-14T14:44:46.468Z,76.10
2017-11-14T14:47:51.617Z,76.10
2017-11-14T14:50:57.841Z,76.90
2017-11-14T14:54:02.905Z,76.80
2017-11-14T14:57:08.361Z,76.60
2017-11-14T15:00:14.033Z,77.50
2017-11-14T15:03:20.263Z,77.50
2017-11-14T15:06:26.087Z,77.60
2017-11-14T15:09:31.754Z,77.90
2017-11-14T15:12:37.608Z,79.00
2017-11-14T15:15:43.126Z,79.70
2017-11-14T15:18:49.253Z,79.60
2017-11-14T15:21:55.768Z,79.60
2017-11-14T15:25:00.762Z,79.90
2017-11-14T15:28:06.702Z,80.20
2017-11-14T15:31:12.636Z,80.20
2017-11-14T15:34:18.265Z,80.30
2017-11-14T15:37:24.085Z,81.20
2017-11-14T15:40:28.944Z,81.20
2017-11-14T15:43:34.880Z,82.30
2017-11-14T15:46:40.561Z,83.00
2017-11-14T15:49:45.539Z,83.60
2017-11-14T15:52:51.993Z,84.20
2017-11-14T15:55:58.469Z,85.40
2017-11-14T15:59:04.493Z,88.50
2017-11-14T16:02:09.255Z,88.60
2017-11-14T16:05:14.800Z,88.30
2017-11-14T16:08:21.731Z,88.70
2017-11-14T16:11:27.755Z,89.00
2017-11-14T16:14:33.801Z,87.80
2017-11-14T16:17:39.582Z,87.70
2017-11-14T16:20:45.261Z,88.20
2017-11-14T16:23:50.784Z,89.40
2017-11-14T16:26:56.209Z,90.20
2017-11-14T16:30:02.934Z,90.30
2017-11-14T16:33:07.788Z,91.00
2017-11-14T16:36:12.652Z,91.20
2017-11-14T16:39:18.271Z,91.90
2017-11-14T16:42:24.722Z,91.90
2017-11-14T16:45:30.142Z,92.30
2017-11-14T16:48:37.738Z,92.40
2017-11-14T16:51:47.325Z,92.50
2017-11-14T16:54:53.285Z,92.50
2017-11-14T16:58:01.843Z,93.00
2017-11-14T17:01:07.022Z,92.90
2017-11-14T17:04:14.485Z,92.70
2017-11-14T17:07:20.111Z,92.90
2017-11-14T17:10:25.901Z,93.30
2017-11-14T17:13:31.573Z,93.30
2017-11-14T17:16:36.925Z,93.50
2017-11-14T17:19:43.130Z,93.60
2017-11-14T17:22:48.508Z,93.60
2017-11-14T17:25:54.797Z,93.00
2017-11-14T17:29:01.173Z,92.40
2017-11-14T17:32:07.698Z,92.20
2017-11-14T17:35:12.786Z,92.90
2017-11-14T17:38:18.533Z,93.30
2017-11-14T17:41:25.386Z,93.60
2017-11-14T17:44:30.327Z,93.60
2017-11-14T17:47:37.591Z,93.00
2017-11-14T17:50:44.191Z,92.90
2017-11-14T17:53:49.556Z,92.90
2017-11-14T17:56:55.213Z,93.10
2017-11-14T18:00:01.881Z,93.00
2017-11-14T18:03:07.554Z,93.30
2017-11-14T18:06:13.434Z,93.30
2017-11-14T18:09:18.432Z,93.30
2017-11-14T18:12:23.369Z,93.40
2017-11-14T18:15:38.140Z,93.60
2017-11-14T18:18:44.874Z,94.40
2017-11-14T18:21:52.820Z,94.30
2017-11-14T18:25:00.337Z,94.00
2017-11-14T18:28:05.797Z,94.00
2017-11-14T18:31:10.961Z,93.90
2017-11-14T18:34:19.136Z,93.90
2017-11-14T18:37:24.273Z,93.60
2017-11-14T18:40:29.776Z,93.50
2017-11-14T18:43:35.755Z,93.70
2017-11-14T18:46:40.543Z,93.70
2017-11-14T18:49:52.420Z,93.50
2017-11-14T18:52:57.398Z,93.50
2017-11-14T18:56:03.608Z,93.90
2017-11-14T18:59:10.090Z,94.30
2017-11-14T19:02:15.188Z,94.30
2017-11-14T19:05:21.925Z,94.10
2017-11-14T19:08:28.349Z,93.50
2017-11-14T19:11:34.022Z,93.40
2017-11-14T19:14:39.725Z,93.30
2017-11-14T19:17:45.147Z,93.40
2017-11-14T19:20:51.513Z,93.50
2017-11-14T19:23:57.257Z,94.00
2017-11-14T19:27:04.395Z,94.10
2017-11-14T19:30:10.625Z,94.10
2017-11-14T19:33:15.539Z,94.00
2017-11-14T19:36:20.426Z,93.70
2017-11-14T19:39:25.854Z,93.70
2017-11-14T19:42:30.680Z,94.00
2017-11-14T19:45:36.601Z,93.80
2017-11-14T19:48:42.897Z,94.10
2017-11-14T19:51:48.021Z,94.10
2017-11-14T19:54:53.049Z,94.20
2017-11-14T19:57:58.173Z,94.10
2017-11-14T20:01:03.642Z,94.40
2017-11-14T20:04:08.865Z,94.70
2017-11-14T20:07:14.211Z,94.60
2017-11-14T20:10:19.501Z,94.60
2017-11-14T20:13:25.285Z,94.40
2017-11-14T20:16:30.369Z,94.40
2017-11-14T20:19:36.193Z,94.10
2017-11-14T20:22:41.886Z,94.20
2017-11-14T20:25:46.709Z,94.20
2017-11-14T20:28:52.103Z,94.30
2017-11-14T20:31:57.129Z,94.40
2017-11-14T20:35:02.546Z,93.90
2017-11-14T20:38:07.393Z,94.00
2017-11-14T20:41:13.124Z,94.10
2017-11-14T20:44:17.821Z,94.10
2017-11-14T20:47:22.753Z,94.30
2017-11-14T20:50:28.138Z,94.10
2017-11-14T20:53:33.630Z,94.10
2017-11-14T20:56:39.341Z,93.90
2017-11-14T20:59:45.695Z,93.70
2017-11-14T21:02:51.245Z,93.60
2017-11-14T21:05:58.046Z,93.60
2017-11-14T21:09:03.695Z,93.60
2017-11-14T21:12:08.994Z,93.60
2017-11-14T21:15:14.592Z,93.40
2017-11-14T21:18:20.864Z,93.60
2017-11-14T21:21:27.868Z,93.50
2017-11-14T21:24:32.730Z,93.50
2017-11-14T21:27:38.993Z,94.10
2017-11-14T21:30:44.666Z,93.80
2017-11-14T21:33:49.902Z,93.70
2017-11-14T21:36:55.987Z,93.80
2017-11-14T21:40:01.613Z,93.80
2017-11-14T21:43:07.185Z,93.80
2017-11-14T21:46:12.442Z,93.90
2017-11-14T21:49:17.969Z,93.90
2017-11-14T21:52:23.817Z,93.80
2017-11-14T21:55:29.286Z,93.90
2017-11-14T21:58:34.625Z,93.90
2017-11-14T22:01:39.603Z,94.00
2017-11-14T22:04:45.931Z,94.20
2017-11-14T22:07:52.125Z,94.10
2017-11-14T22:10:58.324Z,94.20
2017-11-14T22:14:03.856Z,94.20
2017-11-14T22:17:09.647Z,94.10
2017-11-14T22:20:15.626Z,94.10
2017-11-14T22:23:20.337Z,94.10
2017-11-14T22:26:26.026Z,94.30
2017-11-14T22:29:31.169Z,94.30
2017-11-14T22:32:36.456Z,94.30
2017-11-14T22:35:41.512Z,94.30
2017-11-14T22:38:47.496Z,94.10
2017-11-14T22:41:53.111Z,94.20
2017-11-14T22:44:58.333Z,94.20
2017-11-14T22:48:03.553Z,94.20
2017-11-14T22:51:08.425Z,94.20
2017-11-14T22:54:14.926Z,94.30
2017-11-14T22:57:20.541Z,94.30
2017-11-14T23:00:26.853Z,94.40
2017-11-14T23:03:32.285Z,94.40
2017-11-14T23:06:38.653Z,94.30
2017-11-14T23:09:44.893Z,94.30
2017-11-14T23:12:50.569Z,94.20
2017-11-14T23:15:56.381Z,94.40
2017-11-14T23:19:01.709Z,94.40
2017-11-14T23:22:08.363Z,94.30
2017-11-14T23:25:13.772Z,94.30
2017-11-14T23:28:19.520Z,94.20
2017-11-14T23:31:24.368Z,94.10
2017-11-14T23:34:29.701Z,94.20
2017-11-14T23:37:35.453Z,94.10
2017-11-14T23:40:40.644Z,94.10
2017-11-14T23:43:46.203Z,94.10
2017-11-14T23:46:51.789Z,94.20
2017-11-14T23:49:57.777Z,94.20
2017-11-14T23:53:02.744Z,94.40
2017-11-14T23:56:08.104Z,94.70
2017-11-14T23:59:13.054Z,94.40
